Time;durP1;ratioP1;P1;durP2;ratioP2;P2;SDS_P1;SDS_P2;PMS_P1;PMS_P2;Temp;Humidity;BMP_temperature;BMP_pressure;BME280_temperature;BME280_humidity;BME280_pressure;Samples;Min_cycle;Max_cycle;Signal;HPM_P1;HPM_P2
2022/11/01 00:01:25;;;;;;;4.72;2.92;;;;;;;14.24;45.10;102368.29;1477787;97;21126;-49
2022/11/01 00:03:52;;;;;;;3.55;2.77;;;;;;;14.22;45.25;102364.82;1470239;95;21168;-50
2022/11/01 00:06:19;;;;;;;4.05;2.87;;;;;;;14.21;45.33;102367.03;1471523;97;21134;-50
2022/11/01 00:08:45;;;;;;;5.60;3.00;;;;;;;14.19;45.15;102363.56;1474617;97;21122;-51
2022/11/01 00:11:15;;;;;;;5.20;2.52;;;;;;;14.16;45.07;102360.97;1474558;97;21228;-50
2022/11/01 00:13:44;;;;;;;5.03;2.65;;;;;;;14.15;45.23;102367.10;1475109;97;21571;-50
2022/11/01 00:16:10;;;;;;;4.70;2.87;;;;;;;14.13;45.36;102363.63;1483714;95;21078;-50
2022/11/01 00:18:38;;;;;;;5.00;3.00;;;;;;;14.13;45.53;102359.70;1528908;92;21165;-50
2022/11/01 00:21:05;;;;;;;4.10;2.77;;;;;;;14.12;45.58;102360.58;1568847;89;21083;-50
2022/11/01 00:23:32;;;;;;;4.40;2.40;;;;;;;14.11;45.48;102360.16;1678039;80;21038;-51
2022/11/01 00:25:59;;;;;;;3.75;3.00;;;;;;;14.11;45.52;102360.16;1762213;80;21530;-50
2022/11/01 00:28:29;;;;;;;3.98;2.50;;;;;;;14.11;45.57;102356.23;1771361;80;21538;-50
2022/11/01 00:30:56;;;;;;;5.62;3.37;;;;;;;14.13;45.74;102358.40;1780016;80;21062;-50
2022/11/01 00:33:23;;;;;;;3.87;2.80;;;;;;;14.14;45.93;102350.95;1770508;80;21045;-50
2022/11/01 00:35:49;;;;;;;3.62;2.83;;;;;;;14.16;45.90;102353.11;1768908;80;21494;-50
2022/11/01 00:38:16;;;;;;;3.45;2.50;;;;;;;14.17;45.67;102353.55;1753133;81;21064;-50
2022/11/01 00:40:44;;;;;;;4.37;2.60;;;;;;;14.17;45.26;102352.24;1753338;80;21117;-49
2022/11/01 00:43:11;;;;;;;3.00;2.60;;;;;;;14.16;45.11;102353.11;1749858;81;21538;-50
2022/11/01 00:45:37;;;;;;;3.95;2.90;;;;;;;14.15;45.33;102351.39;1762953;80;21041;-50
2022/11/01 00:48:05;;;;;;;5.60;2.65;;;;;;;14.16;45.71;102349.19;1768872;80;21087;-51
2022/11/01 00:50:32;;;;;;;5.15;3.08;;;;;;;14.15;46.09;102351.39;1756923;80;21089;-50
2022/11/01 00:52:58;;;;;;;5.40;2.70;;;;;;;14.14;46.26;102352.27;1759657;80;21039;-49
2022/11/01 00:55:25;;;;;;;4.72;3.02;;;;;;;14.13;46.19;102348.36;1760545;80;21110;-50
2022/11/01 00:57:52;;;;;;;5.40;2.92;;;;;;;14.10;46.02;102345.33;1761409;80;21499;-50
2022/11/01 01:00:19;;;;;;;4.30;2.40;;;;;;;14.09;45.95;102351.47;1778341;80;21471;-50
2022/11/01 01:02:46;;;;;;;4.30;2.50;;;;;;;14.09;45.89;102349.28;1767447;80;21070;-50
2022/11/01 01:05:13;;;;;;;7.72;3.50;;;;;;;14.08;46.04;102343.17;1755430;80;21530;-50
2022/11/01 01:07:41;;;;;;;9.43;4.37;;;;;;;14.08;46.64;102344.48;1761591;80;21066;-50
2022/11/01 01:10:08;;;;;;;6.83;3.65;;;;;;;14.09;47.27;102354.08;1759137;80;21058;-51
2022/11/01 01:12:36;;;;;;;6.37;4.00;;;;;;;14.07;47.75;102348.00;1758908;80;21043;-50
2022/11/01 01:15:05;;;;;;;6.50;4.08;;;;;;;14.08;48.17;102351.02;1773977;80;21680;-51
2022/11/01 01:17:32;;;;;;;7.45;4.62;;;;;;;14.08;48.61;102343.17;1762805;80;21478;-51
2022/11/01 01:19:59;;;;;;;7.50;4.58;;;;;;;14.09;48.96;102338.37;1753742;80;21132;-51
2022/11/01 01:22:27;;;;;;;6.95;4.70;;;;;;;14.11;49.31;102341.84;1773213;80;21053;-50
2022/11/01 01:24:54;;;;;;;8.38;4.95;;;;;;;14.11;49.86;102343.58;1762150;80;21041;-50
2022/11/01 01:27:20;;;;;;;5.85;4.42;;;;;;;14.11;50.10;102343.16;1756258;80;21039;-51
2022/11/01 01:29:48;;;;;;;8.63;5.10;;;;;;;14.12;50.19;102343.99;1758321;80;20999;-50
2022/11/01 01:32:17;;;;;;;6.40;4.90;;;;;;;14.11;50.41;102339.23;1760547;80;21081;-50
2022/11/01 01:34:44;;;;;;;8.75;5.70;;;;;;;14.11;50.33;102343.58;1744806;81;21045;-50
2022/11/01 01:37:14;;;;;;;8.18;5.33;;;;;;;14.12;50.05;102343.99;1769004;80;21010;-50
2022/11/01 01:39:41;;;;;;;10.38;4.90;;;;;;;14.11;49.85;102348.39;1754967;80;21043;-51
2022/11/01 01:42:31;;;;;;;10.15;6.25;;;;;;;14.10;49.69;102344.02;1754241;80;21043;-50
2022/11/01 01:45:16;;;;;;;7.22;5.15;;;;;;;14.08;49.67;102351.02;1776695;80;21021;-51
2022/11/01 01:47:45;;;;;;;8.18;5.62;;;;;;;14.04;49.81;102350.62;1758903;80;21073;-50
2022/11/01 01:50:23;;;;;;;6.95;5.30;;;;;;;14.01;49.94;102351.11;1741498;80;21095;-50
2022/11/01 01:53:02;;;;;;;9.25;5.53;;;;;;;13.97;49.90;102349.41;1775705;80;21045;-50
2022/11/01 01:55:40;;;;;;;9.15;5.30;;;;;;;13.96;49.89;102356.83;1762669;80;21021;-49
2022/11/01 01:58:09;;;;;;;7.55;5.35;;;;;;;13.95;49.88;102358.56;1622723;86;21630;-49
2022/11/01 02:00:35;;;;;;;9.28;6.12;;;;;;;13.95;49.85;102362.95;1622472;86;21588;-49
2022/11/01 02:03:03;;;;;;;7.15;5.95;;;;;;;13.92;49.81;102361.23;1614272;88;21066;-50
2022/11/01 02:05:52;;;;;;;8.78;5.72;;;;;;;13.88;49.76;102368.69;1622942;86;21603;-50
2022/11/01 02:08:26;;;;;;;8.05;5.92;;;;;;;13.86;49.64;102361.30;1560235;90;21074;-50
2022/11/01 02:10:48;;;;;;;11.22;6.17;;;;;;;13.84;49.52;102363.06;1557657;90;21078;-50
2022/11/01 02:13:15;;;;;;;7.55;4.78;;;;;;;13.81;49.47;102369.61;1575471;89;21094;-51
2022/11/01 02:15:53;;;;;;;9.05;5.25;;;;;;;13.78;49.41;102369.23;1570292;90;21062;-50
2022/11/01 02:18:36;;;;;;;7.10;4.75;;;;;;;13.74;49.29;102371.88;1518076;93;21058;-49
2022/11/01 02:21:27;;;;;;;8.60;5.05;;;;;;;13.71;49.08;102376.69;1501120;93;21651;-50
2022/11/01 02:24:44;;;;;;;7.10;5.25;;;;;;;13.67;48.62;102378.03;1460392;96;21172;-50
2022/11/01 02:27:40;;;;;;;7.33;4.80;;;;;;;13.61;48.29;102380.70;1461515;95;21743;-50
2022/11/01 02:30:14;;;;;;;8.33;4.92;;;;;;;13.54;48.13;102382.50;1462045;96;21188;-50
2022/11/01 02:33:04;;;;;;;6.05;4.60;;;;;;;13.50;48.10;102381.22;1457235;96;21124;-49
2022/11/01 02:35:57;;;;;;;9.78;5.03;;;;;;;13.46;48.16;102383.44;1500931;93;21085;-50
2022/11/01 02:38:41;;;;;;;9.08;5.03;;;;;;;13.43;48.34;102388.70;1507037;93;21077;-50
2022/11/01 02:41:14;;;;;;;7.80;4.83;;;;;;;13.38;48.56;102391.78;1497275;93;21156;-51
2022/11/01 02:43:54;;;;;;;8.38;4.90;;;;;;;13.32;48.85;102395.75;1458811;96;21149;-50
2022/11/01 02:49:07;;;;;;;8.33;4.90;;;;;;;13.27;49.26;102401.00;1471436;96;21589;-50
2022/11/01 02:51:34;;;;;;;8.50;5.53;;;;;;;13.26;49.65;102404.94;1460992;96;21112;-50
2022/11/01 02:54:09;;;;;;;10.10;5.03;;;;;;;13.26;49.86;102405.81;1434540;97;21212;-51
2022/11/01 02:56:37;;;;;;;8.38;5.42;;;;;;;13.27;50.09;102400.16;1458197;97;21146;-51
2022/11/01 02:59:05;;;;;;;7.75;5.42;;;;;;;13.29;50.23;102394.02;1458884;98;21104;-50
2022/11/01 03:01:33;;;;;;;8.68;6.28;;;;;;;13.32;50.52;102394.44;1505226;93;21105;-50
2022/11/01 03:03:59;;;;;;;8.13;5.95;;;;;;;13.33;50.83;102395.76;1549804;92;21630;-50
2022/11/01 03:06:40;;;;;;;9.70;6.33;;;;;;;13.35;51.10;102406.20;1554682;91;21124;-49
2022/11/01 03:09:09;;;;;;;7.33;5.85;;;;;;;13.36;51.40;102403.56;1547613;92;21054;-50
2022/11/01 03:12:06;;;;;;;11.38;6.17;;;;;;;13.38;51.49;102412.70;1580287;90;21136;-51
2022/11/01 03:14:42;;;;;;;11.48;6.67;;;;;;;13.37;51.47;102409.23;1552605;88;21399;-50
2022/11/01 03:17:20;;;;;;;10.40;6.35;;;;;;;13.37;51.66;102409.67;1535991;92;21164;-49
2022/11/01 03:19:57;;;;;;;8.60;6.12;;;;;;;13.35;51.75;102408.81;1553953;91;21581;-50
2022/11/01 03:22:42;;;;;;;9.63;6.30;;;;;;;13.38;51.88;102412.70;1558951;91;21608;-50
2022/11/01 03:25:39;;;;;;;9.30;6.85;;;;;;;13.42;51.91;102410.48;1548021;91;21544;-50
2022/11/01 03:28:23;;;;;;;11.83;6.97;;;;;;;13.46;51.96;102413.08;1532022;93;21144;-50
2022/11/01 03:31:04;;;;;;;13.72;7.22;;;;;;;13.50;52.01;102408.25;1475485;95;21136;-50
2022/11/01 03:33:33;;;;;;;8.73;6.20;;;;;;;13.53;51.93;102406.93;1491186;95;21621;-50
2022/11/01 03:36:03;;;;;;;8.90;6.90;;;;;;;13.55;51.92;102413.45;1456405;96;21054;-49
2022/11/01 03:38:35;;;;;;;10.83;7.13;;;;;;;13.56;52.09;102417.35;1440317;98;21147;-50
2022/11/01 03:41:05;;;;;;;10.63;7.30;;;;;;;13.56;51.93;102416.51;1531823;91;21112;-50
2022/11/01 03:43:31;;;;;;;10.80;7.47;;;;;;;13.53;51.99;102417.83;1545161;91;21648;-50
2022/11/01 03:46:00;;;;;;;10.82;6.87;;;;;;;13.48;52.30;102416.98;1552793;91;21550;-51
2022/11/01 03:48:26;;;;;;;10.35;6.87;;;;;;;13.43;52.74;102418.77;1550712;91;21090;-50
2022/11/01 03:50:55;;;;;;;12.82;7.40;;;;;;;13.38;53.00;102414.00;1548617;91;21102;-50
2022/11/01 03:53:22;;;;;;;9.85;7.62;;;;;;;13.33;53.34;102417.11;1528078;93;21113;-50
2022/11/01 03:55:50;;;;;;;11.83;8.65;;;;;;;13.29;53.60;102421.92;1565403;90;21065;-50
2022/11/01 03:58:17;;;;;;;12.10;7.80;;;;;;;13.29;53.63;102418.84;1564371;90;21108;-50
2022/11/01 04:00:44;;;;;;;10.60;7.37;;;;;;;13.29;53.49;102421.92;1574395;90;21141;-50
2022/11/01 04:03:12;;;;;;;10.80;7.15;;;;;;;13.26;53.52;102417.58;1565952;90;21088;-51
2022/11/01 04:05:40;;;;;;;8.75;6.08;;;;;;;13.21;53.54;102415.88;1566857;90;21090;-49
2022/11/01 04:08:10;;;;;;;11.10;6.62;;;;;;;13.19;53.42;102422.87;1564505;90;21167;-50
2022/11/01 04:10:38;;;;;;;9.95;5.67;;;;;;;13.17;53.22;102423.31;1573848;90;21083;-50
2022/11/01 04:13:06;;;;;;;8.70;6.08;;;;;;;13.16;52.92;102419.83;1571469;88;21083;-51
2022/11/01 04:21:14;;;;;;;8.28;5.67;;;;;;;13.11;52.29;102413.74;1596218;88;21134;-50
2022/11/01 04:23:42;;;;;;;8.98;5.53;;;;;;;13.12;52.07;102412.87;1595334;89;21082;-50
2022/11/01 04:26:17;;;;;;;8.98;5.12;;;;;;;13.12;51.96;102417.23;1581048;89;21503;-50
2022/11/01 04:28:55;;;;;;;11.68;5.75;;;;;;;13.10;52.11;102415.06;1634174;86;21700;-50
2022/11/01 04:31:29;;;;;;;7.40;5.47;;;;;;;13.08;52.43;102419.44;1644220;87;21054;-49
2022/11/01 04:33:56;;;;;;;12.78;5.92;;;;;;;13.06;52.78;102422.91;1604806;87;20995;-50
2022/11/01 04:36:23;;;;;;;7.62;5.17;;;;;;;13.07;52.98;102423.78;1646879;85;21039;-50
2022/11/01 04:38:54;;;;;;;8.00;5.83;;;;;;;13.06;53.23;102426.83;1654239;85;21096;-50
2022/11/01 04:41:23;;;;;;;7.70;6.05;;;;;;;13.05;53.34;102423.80;1649420;84;21526;-50
2022/11/01 04:43:52;;;;;;;9.43;6.22;;;;;;;13.08;53.52;102426.38;1653877;85;21574;-50
2022/11/01 04:46:19;;;;;;;9.80;6.50;;;;;;;13.10;53.70;102429.44;1653299;85;21114;-50
2022/11/01 04:48:46;;;;;;;9.33;5.80;;;;;;;13.12;53.97;102428.99;1664589;84;21071;-51
2022/11/01 04:51:12;;;;;;;10.65;6.55;;;;;;;13.15;54.12;102432.45;1642727;84;21047;-50
2022/11/01 04:53:39;;;;;;;8.95;6.78;;;;;;;13.20;54.26;102432.42;1663195;84;21072;-51
2022/11/01 04:56:10;;;;;;;9.65;6.62;;;;;;;13.23;54.31;102431.12;1659406;84;21583;-50
2022/11/01 04:58:38;;;;;;;12.95;7.03;;;;;;;13.26;54.34;102438.49;1658402;85;21076;-50
2022/11/01 05:01:06;;;;;;;9.73;6.83;;;;;;;13.29;54.29;102442.84;1667978;85;21120;-51
2022/11/01 05:03:34;;;;;;;9.30;7.03;;;;;;;13.30;54.46;102434.98;1666329;85;21061;-50
2022/11/01 05:06:01;;;;;;;9.35;7.08;;;;;;;13.32;54.62;102437.58;1652539;84;21210;-51
2022/11/01 05:08:28;;;;;;;10.65;7.67;;;;;;;13.33;54.71;102444.56;1662905;84;21043;-50
2022/11/01 05:10:55;;;;;;;9.48;7.35;;;;;;;13.30;54.86;102439.33;1654481;84;21082;-50
2022/11/01 05:13:24;;;;;;;11.18;7.30;;;;;;;13.30;55.13;102444.56;1645430;84;21051;-50
2022/11/01 05:15:51;;;;;;;12.23;6.95;;;;;;;13.30;55.31;102449.79;1649480;85;21066;-51
2022/11/01 05:18:17;;;;;;;12.90;7.60;;;;;;;13.31;55.34;102446.31;1667920;85;22378;-51
2022/11/01 05:20:45;;;;;;;11.70;7.37;;;;;;;13.34;55.24;102451.51;1643511;86;21110;-50
2022/11/01 05:23:12;;;;;;;10.95;7.12;;;;;;;13.37;55.24;102449.77;1665490;85;21461;-50
2022/11/01 05:25:40;;;;;;;10.45;7.00;;;;;;;13.42;55.16;102451.02;1681948;83;21047;-50
2022/11/01 05:28:10;;;;;;;9.55;7.10;;;;;;;13.42;55.15;102447.09;1708870;83;21031;-51
2022/11/01 05:30:38;;;;;;;9.80;6.53;;;;;;;13.47;55.04;102447.52;1718397;80;21033;-50
2022/11/01 05:33:05;;;;;;;11.20;7.33;;;;;;;13.51;54.92;102452.27;1759202;80;21612;-50
2022/11/01 05:35:34;;;;;;;9.48;6.45;;;;;;;13.55;54.84;102456.60;1765324;81;21503;-50
2022/11/01 05:38:02;;;;;;;11.10;6.97;;;;;;;13.56;54.75;102458.36;1745157;80;21075;-50
2022/11/01 05:40:31;;;;;;;9.85;5.95;;;;;;;13.61;54.33;102461.79;1778963;80;21061;-50
2022/11/01 05:42:58;;;;;;;10.13;6.42;;;;;;;13.65;54.02;102459.58;1774045;80;21006;-50
2022/11/01 05:45:25;;;;;;;9.93;6.37;;;;;;;13.68;53.83;102458.27;1760810;80;21050;-50
2022/11/01 05:47:52;;;;;;;9.93;6.83;;;;;;;13.70;53.58;102457.34;1770443;80;21098;-50
2022/11/01 05:50:18;;;;;;;10.35;7.10;;;;;;;13.74;53.43;102458.22;1750543;80;21486;-50
2022/11/01 05:52:45;;;;;;;11.22;6.80;;;;;;;13.80;53.24;102463.39;1754902;80;21038;-50
2022/11/01 05:55:12;;;;;;;9.48;6.40;;;;;;;13.81;53.30;102463.80;1760412;80;21079;-50
2022/11/01 05:57:39;;;;;;;7.97;6.78;;;;;;;14.01;52.82;102457.99;1760526;80;21109;-50
2022/11/01 06:00:09;;;;;;;13.20;7.05;;;;;;;14.11;52.20;102467.49;1750923;80;21038;-50
2022/11/01 06:02:40;;;;;;;11.35;6.70;;;;;;;14.16;51.93;102467.42;1757468;80;21042;-51
2022/11/01 06:05:08;;;;;;;10.93;6.67;;;;;;;14.19;51.76;102469.59;1755066;80;21097;-49
2022/11/01 06:07:36;;;;;;;10.85;6.72;;;;;;;14.19;51.54;102468.28;1762086;80;21046;-50
2022/11/01 06:10:04;;;;;;;10.00;5.97;;;;;;;14.16;51.36;102472.23;1756488;80;21011;-51
2022/11/01 06:12:32;;;;;;;7.83;6.45;;;;;;;14.14;51.22;102467.45;1766633;80;21026;-50
2022/11/01 06:15:00;;;;;;;8.40;6.72;;;;;;;14.12;51.34;102471.83;1757477;80;21078;-50
2022/11/01 06:17:28;;;;;;;7.87;5.72;;;;;;;14.13;51.34;102467.47;1746769;80;21002;-50
2022/11/01 06:19:54;;;;;;;9.63;6.50;;;;;;;14.15;51.28;102474.87;1754873;80;21027;-50
2022/11/01 06:22:21;;;;;;;8.15;5.67;;;;;;;14.13;51.17;102473.58;1764361;80;21029;-50
2022/11/01 06:24:48;;;;;;;9.55;6.58;;;;;;;14.12;51.09;102478.38;1759855;80;21410;-50
2022/11/01 06:27:15;;;;;;;8.25;6.12;;;;;;;14.12;51.08;102480.99;1761555;80;21964;-50
2022/11/01 06:29:42;;;;;;;10.72;6.90;;;;;;;14.13;50.96;102478.81;1770435;80;20998;-50
2022/11/01 06:32:09;;;;;;;9.45;7.28;;;;;;;14.16;50.93;102480.52;1766860;80;21649;-50
2022/11/01 06:34:35;;;;;;;14.33;8.68;;;;;;;14.19;50.88;102482.69;1735297;80;21032;-50
2022/11/01 06:37:02;;;;;;;10.85;7.53;;;;;;;14.20;50.72;102480.95;1768910;80;21505;-50
2022/11/01 06:39:28;;;;;;;11.73;8.08;;;;;;;14.21;50.64;102486.16;1763821;80;21077;-49
2022/11/01 06:41:55;;;;;;;9.83;6.87;;;;;;;14.23;50.66;102480.47;1753350;80;21081;-51
2022/11/01 06:44:21;;;;;;;9.93;6.78;;;;;;;14.26;50.31;102481.73;1753413;80;21041;-49
2022/11/01 06:46:48;;;;;;;9.85;6.60;;;;;;;14.29;49.99;102476.51;1756036;80;21058;-50
2022/11/01 06:49:15;;;;;;;8.60;6.42;;;;;;;14.32;49.82;102480.39;1754810;80;21079;-50
2022/11/01 06:51:42;;;;;;;10.32;7.10;;;;;;;14.34;49.71;102481.70;1761120;80;21039;-50
2022/11/01 06:54:09;;;;;;;8.20;6.03;;;;;;;14.33;49.53;102481.27;1751791;80;21037;-50
2022/11/01 06:56:35;;;;;;;8.63;6.12;;;;;;;14.32;49.42;102484.32;1761867;80;21487;-49
2022/11/01 06:59:02;;;;;;;13.30;5.70;;;;;;;14.34;49.42;102483.86;1776830;80;21518;-50
2022/11/01 07:01:29;;;;;;;9.03;6.62;;;;;;;14.39;49.35;102486.44;1767724;80;21124;-50
2022/11/01 07:03:56;;;;;;;8.38;5.45;;;;;;;14.41;49.11;102488.17;1757119;80;21033;-50
2022/11/01 07:06:27;;;;;;;7.80;5.55;;;;;;;14.43;48.91;102487.70;1776957;80;21077;-49
2022/11/01 07:08:52;;;;;;;10.13;6.58;;;;;;;14.45;48.81;102494.23;1768846;80;21522;-50
2022/11/01 07:11:19;;;;;;;11.03;6.35;;;;;;;14.46;48.85;102489.00;1755381;80;21094;-51
2022/11/01 07:13:45;;;;;;;9.93;7.25;;;;;;;14.46;48.80;102492.05;1762374;80;21541;-50
2022/11/01 07:16:13;;;;;;;10.48;7.05;;;;;;;14.46;48.73;102495.55;1757826;80;21011;-50
2022/11/01 07:18:41;;;;;;;12.82;7.37;;;;;;;14.47;48.62;102485.48;1754273;81;21039;-50
2022/11/01 07:21:07;;;;;;;13.58;8.58;;;;;;;14.46;48.63;102490.31;1756278;80;21561;-50
2022/11/01 07:23:35;;;;;;;12.28;7.65;;;;;;;14.46;48.65;102488.13;1752533;80;21070;-49
2022/11/01 07:26:02;;;;;;;10.08;7.08;;;;;;;14.47;48.18;102489.41;1780290;80;21042;-50
2022/11/01 07:28:31;;;;;;;11.85;7.90;;;;;;;14.46;48.19;102479.84;1752275;80;21518;-50
2022/11/01 07:30:57;;;;;;;11.68;7.92;;;;;;;14.49;48.29;102486.34;1754020;80;21431;-50
2022/11/01 07:33:25;;;;;;;11.48;7.90;;;;;;;14.50;48.60;102479.35;1747553;80;21543;-49
2022/11/01 07:35:53;;;;;;;9.88;6.58;;;;;;;14.52;48.55;102478.46;1737885;80;21014;-50
2022/11/01 07:38:20;;;;;;;11.22;6.58;;;;;;;14.54;48.37;102476.69;1757309;80;21023;-50
2022/11/01 07:40:48;;;;;;;11.83;7.37;;;;;;;14.56;48.10;102474.92;1751830;81;21534;-50
2022/11/01 07:43:16;;;;;;;10.70;7.78;;;;;;;14.57;47.95;102481.00;1752204;81;20994;-51
2022/11/01 07:45:43;;;;;;;9.98;7.78;;;;;;;14.57;47.59;102477.95;1747239;80;21018;-50
2022/11/01 07:48:12;;;;;;;10.88;8.15;;;;;;;14.56;48.00;102472.30;1756935;80;21030;-51
2022/11/01 07:50:41;;;;;;;13.48;8.48;;;;;;;14.52;48.31;102478.46;1760174;80;20979;-50
2022/11/01 07:53:12;;;;;;;11.83;7.90;;;;;;;14.46;48.55;102483.77;1743736;80;21014;-50
2022/11/01 07:55:39;;;;;;;12.70;7.35;;;;;;;14.43;48.21;102482.91;1747947;80;21628;-50
2022/11/01 07:58:06;;;;;;;11.10;7.42;;;;;;;14.43;48.19;102479.85;1758468;80;21097;-50
2022/11/01 08:00:33;;;;;;;13.72;8.45;;;;;;;14.44;48.28;102480.73;1747576;80;21014;-50
2022/11/01 08:03:03;;;;;;;13.75;8.10;;;;;;;14.45;48.10;102472.84;1754858;80;21020;-50
2022/11/01 08:05:30;;;;;;;11.90;8.48;;;;;;;14.45;48.22;102471.53;1693773;83;21081;-51
2022/11/01 08:07:57;;;;;;;11.22;7.97;;;;;;;14.47;48.31;102472.39;1699539;82;22025;-50
2022/11/01 08:10:26;;;;;;;10.50;7.28;;;;;;;14.50;47.99;102471.50;1704187;82;21522;-50
2022/11/01 08:13:17;;;;;;;11.40;7.83;;;;;;;14.52;48.05;102470.60;1683477;83;21069;-50
2022/11/01 08:15:46;;;;;;;10.00;7.33;;;;;;;14.53;48.18;102467.08;1668704;85;21104;-51
2022/11/01 08:18:13;;;;;;;9.73;7.40;;;;;;;14.57;48.20;102473.14;1665042;85;21499;-50
2022/11/01 08:20:40;;;;;;;10.10;7.53;;;;;;;14.58;48.09;102473.16;1702067;83;21109;-50
2022/11/01 08:23:07;;;;;;;9.65;7.25;;;;;;;14.59;48.06;102469.63;1722001;82;21090;-50
2022/11/01 08:25:34;;;;;;;10.80;7.60;;;;;;;14.59;47.84;102475.30;1679765;84;21089;-50
2022/11/01 08:28:07;;;;;;;12.33;8.00;;;;;;;14.60;48.21;102474.00;1635435;85;21207;-50
2022/11/01 08:30:35;;;;;;;10.28;6.95;;;;;;;14.65;48.21;102476.11;1614108;88;21035;-50
2022/11/01 08:33:02;;;;;;;10.40;7.45;;;;;;;14.70;47.42;102470.83;1617332;86;21122;-50
2022/11/01 08:35:32;;;;;;;7.83;6.80;;;;;;;14.78;47.92;102475.97;1647026;86;21023;-52
2022/11/01 08:37:59;;;;;;;10.82;7.00;;;;;;;14.82;47.40;102464.13;1623259;86;21312;-51
2022/11/01 08:40:27;;;;;;;8.65;7.12;;;;;;;14.86;47.22;102470.22;1583312;87;21080;-50
2022/11/01 08:42:54;;;;;;;11.25;7.87;;;;;;;14.89;47.27;102459.68;1628018;87;21141;-50
2022/11/01 08:45:20;;;;;;;10.23;7.20;;;;;;;14.96;46.87;102462.66;1615946;86;21137;-50
2022/11/01 08:47:47;;;;;;;10.60;7.05;;;;;;;14.99;46.44;102463.48;1630767;86;21063;-50
2022/11/01 08:50:15;;;;;;;9.85;7.67;;;;;;;15.03;46.29;102457.74;1629636;86;21084;-50
2022/11/01 08:52:42;;;;;;;12.25;7.87;;;;;;;15.06;46.05;102453.78;1601616;86;21051;-50
2022/11/01 08:55:10;;;;;;;11.38;7.78;;;;;;;15.08;46.25;102455.94;1623449;86;21098;-49
2022/11/01 08:57:37;;;;;;;11.38;7.62;;;;;;;15.12;46.01;102457.63;1610320;87;21090;-50
2022/11/01 09:02:37;;;;;;;10.13;7.40;;;;;;;15.15;45.91;102452.33;1565384;90;21073;-50
2022/11/01 09:05:05;;;;;;;11.43;7.97;;;;;;;15.18;46.29;102449.69;1607302;87;21550;-51
2022/11/01 09:07:34;;;;;;;9.35;7.12;;;;;;;15.22;46.25;102450.06;1593611;89;21110;-50
2022/11/01 09:10:00;;;;;;;12.93;9.05;;;;;;;15.26;46.39;102437.33;1614319;89;21577;-51
2022/11/01 09:12:28;;;;;;;10.93;8.10;;;;;;;15.33;46.30;102442.92;1612948;89;21066;-49
2022/11/01 09:14:56;;;;;;;10.43;7.78;;;;;;;15.38;46.08;102441.95;1614145;89;21112;-50
2022/11/01 09:17:22;;;;;;;15.38;8.35;;;;;;;15.43;45.72;102437.98;1594010;89;21107;-50
2022/11/01 09:19:49;;;;;;;9.68;7.92;;;;;;;15.47;45.81;102434.43;1579305;88;21079;-50
2022/11/01 09:22:16;;;;;;;14.13;8.48;;;;;;;15.53;45.86;102434.33;1567866;90;21111;-50
2022/11/01 09:24:44;;;;;;;10.45;7.78;;;;;;;15.58;45.79;102428.55;1599491;89;21544;-50
2022/11/01 09:27:11;;;;;;;9.00;7.85;;;;;;;15.64;45.69;102428.45;1604861;87;21157;-50
2022/11/01 09:29:37;;;;;;;11.22;8.15;;;;;;;15.68;45.38;102428.84;1632339;86;21105;-51
2022/11/01 09:32:07;;;;;;;10.32;7.80;;;;;;;15.70;45.24;102425.75;1621175;87;21589;-50
2022/11/01 09:34:35;;;;;;;11.18;7.85;;;;;;;15.74;45.36;102414.75;1618343;87;21054;-50
2022/11/01 09:37:03;;;;;;;9.80;8.08;;;;;;;15.76;45.30;102413.84;1661649;86;21038;-50
2022/11/01 09:39:32;;;;;;;11.53;7.72;;;;;;;15.81;45.11;102411.98;1660255;86;21054;-50
2022/11/01 09:42:05;;;;;;;10.95;7.78;;;;;;;15.86;45.20;102407.97;1657029;86;21146;-50
2022/11/01 09:44:38;;;;;;;10.90;7.40;;;;;;;15.92;45.07;102411.80;1655161;86;21565;-50
2022/11/01 09:47:24;;;;;;;10.65;8.10;;;;;;;15.96;44.96;102399.04;1646110;86;21053;-51
2022/11/01 09:50:03;;;;;;;9.58;7.05;;;;;;;16.01;44.97;102400.68;1667335;84;21060;-50
2022/11/01 09:52:30;;;;;;;17.02;7.62;;;;;;;16.05;44.75;102398.41;1659097;85;21095;-50
2022/11/01 09:54:58;;;;;;;10.95;6.95;;;;;;;16.08;44.79;102399.69;1654740;85;21090;-50
2022/11/01 09:57:34;;;;;;;10.32;7.00;;;;;;;16.13;44.54;102404.42;1646701;85;21546;-50
2022/11/01 10:00:12;;;;;;;10.18;6.80;;;;;;;16.17;44.60;102403.47;1642874;86;21136;-50
2022/11/01 10:03:14;;;;;;;11.30;6.55;;;;;;;16.21;44.20;102402.52;1610747;87;21137;-50
2022/11/01 10:06:02;;;;;;;13.45;7.28;;;;;;;16.26;44.08;102399.34;1583129;89;21018;-50
2022/11/01 10:09:02;;;;;;;10.78;6.20;;;;;;;16.33;42.82;102397.91;1563190;89;21092;-51
2022/11/01 10:12:05;;;;;;;10.63;5.50;;;;;;;16.37;42.20;102390.38;1494339;94;21331;-50
2022/11/01 10:14:53;;;;;;;11.93;6.62;;;;;;;16.43;41.47;102391.56;1451696;96;21186;-50
2022/11/01 10:17:28;;;;;;;8.60;6.20;;;;;;;16.50;41.62;102394.54;1482776;95;21631;-50
2022/11/01 10:19:54;;;;;;;9.18;5.60;;;;;;;16.55;40.12;102384.81;1422191;99;21201;-49
2022/11/01 10:22:31;;;;;;;7.28;4.55;;;;;;;16.61;39.42;102379.42;1421753;99;21113;-49
2022/11/01 10:25:01;;;;;;;5.85;4.33;;;;;;;16.67;38.83;102384.08;1411985;99;21590;-49
2022/11/01 10:28:07;;;;;;;5.97;3.98;;;;;;;16.74;38.74;102374.30;1416410;99;21174;-49
2022/11/01 10:30:45;;;;;;;6.08;3.37;;;;;;;16.79;38.67;102379.91;1435506;97;22602;-49
2022/11/01 10:33:38;;;;;;;4.40;3.08;;;;;;;16.87;38.05;102384.98;1398366;100;21223;-49
2022/11/01 10:36:21;;;;;;;3.95;2.70;;;;;;;16.92;37.35;102384.41;1363725;103;21636;-49
2022/11/01 10:38:54;;;;;;;3.92;2.83;;;;;;;16.99;36.88;102378.13;1357378;104;21138;-49
2022/11/01 10:41:32;;;;;;;3.72;2.67;;;;;;;17.05;36.51;102377.99;1326352;106;21696;-50
2022/11/01 10:44:02;;;;;;;3.40;2.58;;;;;;;17.09;36.85;102374.39;1329500;106;21689;-50
2022/11/01 10:46:34;;;;;;;4.92;3.30;;;;;;;17.14;35.54;102372.53;1315846;106;21174;-50
2022/11/01 10:49:04;;;;;;;7.45;5.17;;;;;;;17.19;36.25;102366.70;1333108;105;21178;-49
2022/11/01 10:51:32;;;;;;;7.67;5.72;;;;;;;17.26;38.70;102370.92;1341438;104;21153;-50
2022/11/01 10:54:03;;;;;;;8.78;5.17;;;;;;;17.32;38.25;102369.46;1363319;103;21164;-49
2022/11/01 10:56:43;;;;;;;6.97;4.65;;;;;;;17.40;38.06;102374.09;1374273;101;21187;-49
2022/11/01 10:59:16;;;;;;;6.65;3.02;;;;;;;17.47;37.84;102373.48;1387908;101;21165;-50
2022/11/01 11:01:43;;;;;;;5.85;4.72;;;;;;;17.53;36.61;102371.61;1400999;101;21692;-49
2022/11/01 11:04:15;;;;;;;10.32;7.53;;;;;;;17.60;37.36;102370.53;1403374;100;21154;-50
2022/11/01 11:06:43;;;;;;;9.38;7.12;;;;;;;17.66;39.28;102367.75;1404198;100;21146;-49
2022/11/01 11:09:22;;;;;;;8.13;6.05;;;;;;;17.73;39.87;102369.33;1435827;97;21609;-50
2022/11/01 11:11:52;;;;;;;9.78;7.15;;;;;;;17.78;39.80;102372.69;1454143;97;21201;-50
2022/11/01 11:14:18;;;;;;;11.15;6.97;;;;;;;17.83;40.20;102372.13;1449090;97;21132;-49
2022/11/01 11:16:51;;;;;;;7.47;5.67;;;;;;;17.87;40.38;102366.33;1445289;98;21098;-49
2022/11/01 11:19:32;;;;;;;8.73;6.22;;;;;;;17.92;39.86;102354.36;1450936;97;21140;-49
2022/11/01 11:22:01;;;;;;;8.45;5.78;;;;;;;17.93;39.51;102362.21;1452608;97;21704;-49
2022/11/01 11:24:40;;;;;;;7.65;5.25;;;;;;;17.97;39.71;102364.33;1443280;98;21701;-50
2022/11/01 11:27:22;;;;;;;7.25;5.47;;;;;;;17.99;39.42;102358.58;1411013;99;21470;-48
2022/11/01 11:29:53;;;;;;;7.35;4.85;;;;;;;18.00;39.31;102356.33;1464813;96;21141;-49
2022/11/01 11:32:24;;;;;;;7.12;4.17;;;;;;;18.00;39.15;102351.94;1504353;93;21179;-49
2022/11/01 11:35:01;;;;;;;7.50;4.65;;;;;;;18.04;38.54;102352.70;1481359;95;21663;-49
2022/11/01 11:37:31;;;;;;;5.35;4.28;;;;;;;18.07;38.73;102352.64;1466789;94;21087;-50
2022/11/01 11:40:22;;;;;;;5.87;4.20;;;;;;;18.09;37.93;102353.46;1505418;93;21086;-51
2022/11/01 11:42:51;;;;;;;7.60;3.83;;;;;;;18.12;37.29;102353.36;1478903;95;21070;-50
2022/11/01 11:45:29;;;;;;;8.70;4.08;;;;;;;18.11;37.18;102349.02;1481638;95;21128;-51
2022/11/01 11:48:14;;;;;;;6.42;4.22;;;;;;;18.10;36.86;102344.19;1463834;95;21110;-49
2022/11/01 11:50:40;;;;;;;5.80;5.00;;;;;;;18.12;36.67;102337.55;1484606;95;21116;-49